createdAt,value
2017-09-10T00:01:48.469Z,3.57
2017-09-10T00:04:16.129Z,3.93
2017-09-10T00:06:43.737Z,4.40
2017-09-10T00:09:11.381Z,3.80
2017-09-10T00:11:38.979Z,4.20
2017-09-10T00:14:07.370Z,3.80
2017-09-10T00:16:34.979Z,3.73
2017-09-10T00:19:02.614Z,3.97
2017-09-10T00:21:30.247Z,4.50
2017-09-10T00:23:58.595Z,3.77
2017-09-10T00:26:27.104Z,3.53
2017-09-10T00:28:55.441Z,3.87
2017-09-10T00:31:23.076Z,4.40
2017-09-10T00:33:50.703Z,4.47
2017-09-10T00:36:19.131Z,4.37
2017-09-10T00:38:46.706Z,4.37
2017-09-10T00:41:14.335Z,4.00
2017-09-10T00:43:42.029Z,3.60
2017-09-10T00:46:09.750Z,4.17
2017-09-10T00:48:37.412Z,3.10
2017-09-10T00:51:05.023Z,3.37
2017-09-10T00:53:33.432Z,3.70
2017-09-10T00:56:01.820Z,3.10
2017-09-10T00:58:29.438Z,3.60
2017-09-10T01:00:57.031Z,3.40
2017-09-10T01:03:25.420Z,3.03
2017-09-10T01:05:53.070Z,3.03
2017-09-10T01:08:21.597Z,3.53
2017-09-10T01:10:49.236Z,4.00
2017-09-10T01:13:16.988Z,3.60
2017-09-10T01:15:44.592Z,3.80
2017-09-10T01:18:12.280Z,3.67
2017-09-10T01:20:39.872Z,3.87
2017-09-10T01:23:07.504Z,3.50
2017-09-10T01:25:35.095Z,2.93
2017-09-10T01:28:02.834Z,3.10
2017-09-10T01:30:30.460Z,4.30
2017-09-10T01:32:58.093Z,3.10
2017-09-10T01:35:25.753Z,4.13
2017-09-10T01:37:53.398Z,3.40
2017-09-10T01:40:21.728Z,3.00
2017-09-10T01:42:49.512Z,3.50
2017-09-10T01:45:17.110Z,3.30
2017-09-10T01:47:44.727Z,3.73
2017-09-10T01:50:12.344Z,3.33
2017-09-10T01:52:39.978Z,4.10
2017-09-10T01:55:08.374Z,3.60
2017-09-10T01:57:35.996Z,3.33
2017-09-10T02:00:03.570Z,3.47
2017-09-10T02:02:31.922Z,2.87
2017-09-10T02:04:59.560Z,2.80
2017-09-10T02:07:27.148Z,4.07
2017-09-10T02:09:54.836Z,3.77
2017-09-10T02:12:23.180Z,3.33
2017-09-10T02:14:50.788Z,3.60
2017-09-10T02:17:18.407Z,3.50
2017-09-10T02:19:46.783Z,4.27
2017-09-10T02:22:14.426Z,3.00
2017-09-10T02:24:42.053Z,3.30
2017-09-10T02:27:09.644Z,2.87
2017-09-10T02:29:37.322Z,3.47
2017-09-10T02:32:04.954Z,3.07
2017-09-10T02:34:32.563Z,3.80
2017-09-10T02:37:00.383Z,2.93
2017-09-10T02:39:27.990Z,3.67
2017-09-10T02:41:55.612Z,3.00
2017-09-10T02:44:23.210Z,3.23
2017-09-10T02:46:51.656Z,3.63
2017-09-10T02:49:19.250Z,3.80
2017-09-10T02:51:47.671Z,3.90
2017-09-10T02:54:15.294Z,3.47
2017-09-10T02:56:42.910Z,3.47
2017-09-10T02:59:10.522Z,3.77
2017-09-10T03:01:38.876Z,4.23
2017-09-10T03:04:06.490Z,3.43
2017-09-10T03:06:34.134Z,3.80
2017-09-10T03:09:02.473Z,4.00
2017-09-10T03:11:30.888Z,3.63
2017-09-10T03:13:59.252Z,3.43
2017-09-10T03:16:27.669Z,4.40
2017-09-10T03:18:55.257Z,3.90
2017-09-10T03:21:22.882Z,2.93
2017-09-10T03:23:50.504Z,3.60
2017-09-10T03:26:18.151Z,4.20
2017-09-10T03:28:45.728Z,4.20
2017-09-10T03:31:13.420Z,3.83
2017-09-10T03:33:41.806Z,3.80
2017-09-10T03:36:09.438Z,4.20
2017-09-10T03:38:37.020Z,4.67
2017-09-10T03:41:05.393Z,4.40
2017-09-10T03:43:33.804Z,4.10
2017-09-10T03:46:01.371Z,3.83
2017-09-10T03:48:28.943Z,4.63
2017-09-10T03:50:56.588Z,3.90
2017-09-10T03:53:24.167Z,3.83
2017-09-10T03:55:51.845Z,4.60
2017-09-10T03:58:19.671Z,4.37
2017-09-10T04:00:47.245Z,3.90
2017-09-10T04:03:14.830Z,3.90
2017-09-10T04:05:42.468Z,5.37
2017-09-10T04:08:10.063Z,3.63
2017-09-10T04:10:37.746Z,4.43
2017-09-10T04:13:06.097Z,4.90
2017-09-10T04:15:33.713Z,5.13
2017-09-10T04:18:01.353Z,3.93
2017-09-10T04:20:28.939Z,4.00
2017-09-10T04:22:56.561Z,5.00
2017-09-10T04:25:25.018Z,5.10
2017-09-10T04:27:52.618Z,4.83
2017-09-10T04:30:20.209Z,4.70
2017-09-10T04:32:47.847Z,3.77
2017-09-10T04:35:15.437Z,4.33
2017-09-10T04:37:43.025Z,4.10
2017-09-10T04:40:10.671Z,4.70
2017-09-10T04:42:38.267Z,4.43
2017-09-10T04:45:07.363Z,5.07
2017-09-10T04:47:35.025Z,4.00
2017-09-10T04:50:03.426Z,4.53
2017-09-10T04:52:30.986Z,4.23
2017-09-10T04:54:58.698Z,4.73
2017-09-10T04:57:26.300Z,4.00
2017-09-10T04:59:53.927Z,4.10
2017-09-10T05:02:21.524Z,4.10
2017-09-10T05:04:49.159Z,4.87
2017-09-10T05:07:17.073Z,5.10
2017-09-10T05:09:44.699Z,4.37
2017-09-10T05:12:13.058Z,3.87
2017-09-10T05:14:40.670Z,4.43
2017-09-10T05:17:08.276Z,5.60
2017-09-10T05:19:35.861Z,4.57
2017-09-10T05:22:04.281Z,4.27
2017-09-10T05:24:31.987Z,4.40
2017-09-10T05:27:00.355Z,5.60
2017-09-10T05:29:28.229Z,6.27
2017-09-10T05:31:56.569Z,5.90
2017-09-10T05:34:24.162Z,5.97
2017-09-10T05:36:51.792Z,4.67
2017-09-10T05:39:19.442Z,5.90
2017-09-10T05:41:47.149Z,5.00
2017-09-10T05:44:14.757Z,5.13
2017-09-10T05:46:42.509Z,4.13
2017-09-10T05:49:10.236Z,4.83
2017-09-10T05:51:37.817Z,4.80
2017-09-10T05:54:06.316Z,5.00
2017-09-10T05:56:33.905Z,4.20
2017-09-10T05:59:01.512Z,4.30
2017-09-10T06:01:29.181Z,3.90
2017-09-10T06:03:57.551Z,5.47
2017-09-10T06:06:25.189Z,5.43
2017-09-10T06:08:52.769Z,4.27
2017-09-10T06:11:21.134Z,4.30
2017-09-10T06:13:48.739Z,4.83
2017-09-10T06:16:16.315Z,4.20
2017-09-10T06:18:43.954Z,3.83
2017-09-10T06:21:12.566Z,5.17
2017-09-10T06:23:40.161Z,5.00
2017-09-10T06:26:07.795Z,5.10
2017-09-10T06:28:35.386Z,4.23
2017-09-10T06:31:02.982Z,6.00
2017-09-10T06:33:30.619Z,4.53
2017-09-10T06:35:59.030Z,3.60
2017-09-10T06:38:26.655Z,5.03
2017-09-10T06:40:55.089Z,4.37
2017-09-10T06:43:22.750Z,6.00
2017-09-10T06:45:50.336Z,4.33
2017-09-10T06:48:18.072Z,4.77
2017-09-10T06:50:45.695Z,4.67
2017-09-10T06:53:14.062Z,4.80
2017-09-10T06:55:42.426Z,4.67
2017-09-10T06:58:10.028Z,3.90
2017-09-10T07:00:37.660Z,4.20
2017-09-10T07:03:05.234Z,4.23
2017-09-10T07:05:32.877Z,5.07
2017-09-10T07:08:01.286Z,5.20
2017-09-10T07:10:29.625Z,4.07
2017-09-10T07:12:57.246Z,4.57
2017-09-10T07:15:25.154Z,4.20
2017-09-10T07:17:53.549Z,5.27
2017-09-10T07:20:21.934Z,4.57
2017-09-10T07:22:50.384Z,4.03
2017-09-10T07:25:18.159Z,4.47
2017-09-10T07:27:46.505Z,4.83
2017-09-10T07:30:14.135Z,3.47
2017-09-10T07:32:41.794Z,4.63
2017-09-10T07:35:09.457Z,4.40
2017-09-10T07:37:37.086Z,2.60
2017-09-10T07:40:05.647Z,3.17
2017-09-10T07:42:33.299Z,3.57
2017-09-10T07:45:00.893Z,3.30
2017-09-10T07:47:28.475Z,3.70
2017-09-10T07:49:56.887Z,3.50
2017-09-10T07:52:24.511Z,3.70
2017-09-10T07:54:52.854Z,3.43
2017-09-10T07:57:20.485Z,3.40
2017-09-10T07:59:48.061Z,2.50
2017-09-10T08:02:15.671Z,2.87
2017-09-10T08:04:44.235Z,2.60
2017-09-10T08:07:11.880Z,2.30
2017-09-10T08:09:39.717Z,3.40
2017-09-10T08:12:07.374Z,3.00
2017-09-10T08:14:34.938Z,2.50
2017-09-10T08:17:02.547Z,2.67
2017-09-10T08:19:31.721Z,2.80
2017-09-10T08:21:59.345Z,3.30
2017-09-10T08:24:27.009Z,2.63
2017-09-10T08:26:54.655Z,2.30
2017-09-10T08:29:23.004Z,2.60
2017-09-10T08:31:51.106Z,3.00
2017-09-10T08:34:19.473Z,2.37
2017-09-10T08:36:47.887Z,1.50
2017-09-10T08:39:15.487Z,1.30
2017-09-10T08:41:43.928Z,2.00
2017-09-10T08:44:11.543Z,1.57
2017-09-10T08:46:39.145Z,1.63
2017-09-10T08:49:06.763Z,1.97
2017-09-10T08:51:34.355Z,1.30
2017-09-10T08:54:01.945Z,2.10
2017-09-10T08:56:29.570Z,1.83
2017-09-10T08:58:57.163Z,1.53
2017-09-10T09:01:24.787Z,1.00
2017-09-10T09:03:53.197Z,1.23
2017-09-10T09:06:20.829Z,1.23
2017-09-10T09:08:48.644Z,1.17
2017-09-10T09:11:16.359Z,0.80
2017-09-10T09:13:44.041Z,1.10
2017-09-10T09:16:11.712Z,0.87
2017-09-10T09:18:39.481Z,1.20
2017-09-10T09:21:07.049Z,1.30
2017-09-10T09:23:34.655Z,1.00
2017-09-10T09:26:03.118Z,22.47
2017-09-10T09:28:30.755Z,10.90
2017-09-10T09:30:58.332Z,5.07
2017-09-10T09:33:25.980Z,5.03
2017-09-10T09:35:53.665Z,4.23
2017-09-10T09:38:21.247Z,1.30
2017-09-10T09:40:49.649Z,5.03
2017-09-10T09:43:17.213Z,4.53
2017-09-10T09:45:44.818Z,4.73
2017-09-10T09:48:12.441Z,3.20
2017-09-10T09:50:40.108Z,1.80
2017-09-10T09:53:07.693Z,1.83
2017-09-10T09:55:35.451Z,1.63
2017-09-10T09:58:03.213Z,1.33
2017-09-10T10:00:30.777Z,1.90
2017-09-10T10:02:58.385Z,1.33
2017-09-10T10:05:25.983Z,1.60
2017-09-10T10:07:53.572Z,1.63
2017-09-10T10:10:21.315Z,2.23
2017-09-10T10:12:48.891Z,1.17
2017-09-10T10:15:16.641Z,2.20
2017-09-10T10:17:44.217Z,1.87
2017-09-10T10:20:11.824Z,1.43
2017-09-10T10:22:39.512Z,1.90
2017-09-10T10:25:07.091Z,2.63
2017-09-10T10:27:34.794Z,1.67
2017-09-10T10:30:02.546Z,2.40
2017-09-10T10:32:30.942Z,1.10
2017-09-10T10:34:58.521Z,2.00
2017-09-10T10:37:26.143Z,1.97
2017-09-10T10:39:54.673Z,1.33
2017-09-10T10:42:22.266Z,1.13
2017-09-10T10:44:49.961Z,1.10
2017-09-10T10:47:18.291Z,1.50
2017-09-10T10:49:45.917Z,2.63
2017-09-10T10:52:13.559Z,1.50
2017-09-10T10:54:41.215Z,1.60
2017-09-10T10:57:09.595Z,1.80
2017-09-10T10:59:37.993Z,0.90
2017-09-10T11:02:05.627Z,1.23
2017-09-10T11:04:34.033Z,1.53
2017-09-10T11:07:01.648Z,1.60
2017-09-10T11:09:29.284Z,1.00
2017-09-10T11:11:56.849Z,1.47
2017-09-10T11:14:24.461Z,1.27
2017-09-10T11:16:52.849Z,1.93
2017-09-10T11:19:20.442Z,1.70
2017-09-10T11:21:48.089Z,1.40
2017-09-10T11:24:15.677Z,1.00
2017-09-10T11:26:43.357Z,1.60
2017-09-10T11:29:10.986Z,1.20
2017-09-10T11:31:38.636Z,2.23
2017-09-10T11:34:06.283Z,1.30
2017-09-10T11:36:33.854Z,2.00
2017-09-10T11:39:01.502Z,1.37
2017-09-10T11:41:29.181Z,1.20
2017-09-10T11:43:56.956Z,1.20
2017-09-10T11:46:24.613Z,1.13
2017-09-10T11:48:52.215Z,1.33
2017-09-10T11:51:19.983Z,1.10
2017-09-10T11:53:47.671Z,0.87
2017-09-10T11:56:15.241Z,0.80
2017-09-10T11:58:43.084Z,1.13
2017-09-10T12:01:11.455Z,0.93
2017-09-10T12:03:39.850Z,0.93
2017-09-10T12:06:07.468Z,1.47
2017-09-10T12:08:35.123Z,0.90
2017-09-10T12:11:02.727Z,0.97
2017-09-10T12:13:31.071Z,2.07
2017-09-10T12:15:58.731Z,1.60
2017-09-10T12:18:26.336Z,1.13
2017-09-10T12:20:54.687Z,1.10
2017-09-10T12:23:22.482Z,0.93
2017-09-10T12:25:50.084Z,1.00
2017-09-10T12:28:17.702Z,1.10
2017-09-10T12:30:46.051Z,1.07
2017-09-10T12:33:13.640Z,1.10
2017-09-10T12:35:41.471Z,1.40
2017-09-10T12:38:09.915Z,1.00
2017-09-10T12:40:37.566Z,0.80
2017-09-10T12:43:05.153Z,1.13
2017-09-10T12:45:32.761Z,1.30
2017-09-10T12:48:01.129Z,1.00
2017-09-10T12:50:29.545Z,1.00
2017-09-10T12:52:57.154Z,1.20
2017-09-10T12:55:25.533Z,1.27
2017-09-10T12:57:53.161Z,1.40
2017-09-10T13:00:20.754Z,1.13
2017-09-10T13:02:48.337Z,1.50
2017-09-10T13:05:16.744Z,1.10
2017-09-10T13:07:44.343Z,1.50
2017-09-10T13:10:11.992Z,1.00
2017-09-10T13:12:40.524Z,0.93
2017-09-10T13:15:09.166Z,1.37
2017-09-10T13:17:36.798Z,1.27
2017-09-10T13:20:04.405Z,1.70
2017-09-10T13:22:32.173Z,1.70
2017-09-10T13:24:59.825Z,1.00
2017-09-10T13:27:27.456Z,0.60
2017-09-10T13:29:55.063Z,1.40
2017-09-10T13:32:22.623Z,1.33
2017-09-10T13:34:50.271Z,1.10
2017-09-10T13:37:17.858Z,1.73
2017-09-10T13:39:46.261Z,1.73
2017-09-10T13:42:14.032Z,0.90
2017-09-10T13:44:41.637Z,1.53
2017-09-10T13:47:09.275Z,1.13
2017-09-10T13:49:36.920Z,1.13
2017-09-10T13:52:04.521Z,1.73
2017-09-10T13:54:32.324Z,1.10
2017-09-10T13:57:00.032Z,2.27
2017-09-10T13:59:27.624Z,0.80
2017-09-10T14:01:55.984Z,1.30
2017-09-10T14:04:24.394Z,1.60
2017-09-10T14:06:52.773Z,1.37
2017-09-10T14:09:20.354Z,1.10
2017-09-10T14:11:47.997Z,1.50
2017-09-10T14:14:16.349Z,1.27
2017-09-10T14:16:43.985Z,1.30
2017-09-10T14:19:11.578Z,1.30
2017-09-10T14:21:39.183Z,0.90
2017-09-10T14:24:06.848Z,1.37
2017-09-10T14:26:34.469Z,1.33
2017-09-10T14:29:02.850Z,1.53
2017-09-10T14:31:30.452Z,1.63
2017-09-10T14:33:58.082Z,1.33
2017-09-10T14:36:26.494Z,1.40
2017-09-10T14:38:54.125Z,1.67
2017-09-10T14:41:21.838Z,1.33
2017-09-10T14:43:49.443Z,1.23
2017-09-10T14:46:17.813Z,1.23
2017-09-10T14:48:46.227Z,1.80
2017-09-10T14:51:13.816Z,1.33
2017-09-10T14:53:41.422Z,1.17
2017-09-10T14:56:09.790Z,1.37
2017-09-10T14:58:38.177Z,0.90
2017-09-10T15:01:05.831Z,1.20
2017-09-10T15:03:34.444Z,1.30
2017-09-10T15:06:02.029Z,0.93
2017-09-10T15:08:29.660Z,1.00
2017-09-10T15:10:57.358Z,0.80
2017-09-10T15:13:25.017Z,1.13
2017-09-10T15:15:52.699Z,0.87
2017-09-10T15:18:20.352Z,0.80
2017-09-10T15:20:47.950Z,0.87
2017-09-10T15:23:16.307Z,0.70
2017-09-10T15:25:43.933Z,0.60
2017-09-10T15:28:11.510Z,0.70
2017-09-10T15:30:39.084Z,1.27
2017-09-10T15:33:06.713Z,0.80
2017-09-10T15:35:34.302Z,0.80
2017-09-10T15:38:01.908Z,1.00
2017-09-10T15:40:29.501Z,1.27
2017-09-10T15:42:57.147Z,1.73
2017-09-10T15:45:24.781Z,1.33
2017-09-10T15:47:52.479Z,1.10
2017-09-10T15:50:20.143Z,0.93
2017-09-10T15:52:47.744Z,0.97
2017-09-10T15:55:15.332Z,1.53
2017-09-10T15:57:42.933Z,0.80
2017-09-10T16:00:10.647Z,1.20
2017-09-10T16:02:39.039Z,1.13
2017-09-10T16:05:06.631Z,1.10
2017-09-10T16:07:34.294Z,0.80
2017-09-10T16:10:01.908Z,1.20
2017-09-10T16:12:30.263Z,1.60
2017-09-10T16:14:58.053Z,0.87
2017-09-10T16:17:26.403Z,1.10
2017-09-10T16:19:54.000Z,1.73
2017-09-10T16:22:21.654Z,1.17
2017-09-10T16:24:50.011Z,1.33
2017-09-10T16:27:18.439Z,1.10
2017-09-10T16:29:46.075Z,0.90
2017-09-10T16:32:13.801Z,1.00
2017-09-10T16:34:41.573Z,1.10
2017-09-10T16:37:09.227Z,0.80
2017-09-10T16:39:36.814Z,1.80
2017-09-10T16:42:05.261Z,0.87
2017-09-10T16:44:32.915Z,1.23
2017-09-10T16:47:00.581Z,0.97
2017-09-10T16:49:28.157Z,0.60
2017-09-10T16:51:55.917Z,0.97
2017-09-10T16:54:23.496Z,0.80
2017-09-10T16:56:51.863Z,0.70
2017-09-10T16:59:19.505Z,0.70
2017-09-10T17:01:47.207Z,0.80
2017-09-10T17:04:15.642Z,0.87
2017-09-10T17:06:43.255Z,0.73
2017-09-10T17:09:11.593Z,0.80
2017-09-10T17:11:39.226Z,1.00
2017-09-10T17:14:06.896Z,0.60
2017-09-10T17:16:34.583Z,0.90
2017-09-10T17:19:02.235Z,1.00
2017-09-10T17:21:29.841Z,0.70
2017-09-10T17:23:57.657Z,1.03
2017-09-10T17:26:25.385Z,1.07
2017-09-10T17:28:52.960Z,1.10
2017-09-10T17:31:20.604Z,1.27
2017-09-10T17:33:48.205Z,1.10
2017-09-10T17:36:15.973Z,0.70
2017-09-10T17:38:43.721Z,0.63
2017-09-10T17:41:11.299Z,0.90
2017-09-10T17:43:38.933Z,0.67
2017-09-10T17:46:06.523Z,1.10
2017-09-10T17:48:34.171Z,1.33
2017-09-10T17:51:01.837Z,1.03
2017-09-10T17:53:29.487Z,1.07
2017-09-10T17:55:57.165Z,2.00
2017-09-10T17:58:24.761Z,1.07
2017-09-10T18:00:53.315Z,1.00
2017-09-10T18:03:21.576Z,0.90
2017-09-10T18:05:49.193Z,2.07
2017-09-10T18:08:16.822Z,1.97
2017-09-10T18:10:44.455Z,1.13
2017-09-10T18:13:12.100Z,2.60
2017-09-10T18:15:39.754Z,1.67
2017-09-10T18:18:07.410Z,0.90
2017-09-10T18:20:35.013Z,1.63
2017-09-10T18:23:02.749Z,1.77
2017-09-10T18:25:30.385Z,1.30
2017-09-10T18:27:58.003Z,1.97
2017-09-10T18:30:25.650Z,1.17
2017-09-10T18:32:53.279Z,1.80
2017-09-10T18:35:20.891Z,1.97
2017-09-10T18:37:48.547Z,2.00
2017-09-10T18:40:16.150Z,2.03
2017-09-10T18:42:43.817Z,1.77
2017-09-10T18:45:11.661Z,2.10
2017-09-10T18:47:40.035Z,2.00
2017-09-10T18:50:08.414Z,2.40
2017-09-10T18:52:36.875Z,2.30
2017-09-10T18:55:04.449Z,1.87
2017-09-10T18:57:32.119Z,2.33
2017-09-10T19:00:00.499Z,2.60
2017-09-10T19:02:28.910Z,2.00
2017-09-10T19:04:56.567Z,2.33
2017-09-10T19:07:24.162Z,1.40
2017-09-10T19:09:52.749Z,2.50
2017-09-10T19:12:20.357Z,2.70
2017-09-10T19:14:48.769Z,3.00
2017-09-10T19:17:16.359Z,2.70
2017-09-10T19:19:44.087Z,3.37
2017-09-10T19:22:11.762Z,1.93
2017-09-10T19:24:39.381Z,2.93
2017-09-10T19:27:07.805Z,2.10
2017-09-10T19:29:35.413Z,2.43
2017-09-10T19:32:03.039Z,1.90
2017-09-10T19:34:30.674Z,2.50
2017-09-10T19:36:58.435Z,2.00
2017-09-10T19:39:26.149Z,1.97
2017-09-10T19:41:53.747Z,1.90
2017-09-10T19:44:21.392Z,1.40
2017-09-10T19:46:49.734Z,2.17
2017-09-10T19:49:17.385Z,1.70
2017-09-10T19:51:44.973Z,1.70
2017-09-10T19:54:13.318Z,1.30
2017-09-10T19:56:40.987Z,2.00
2017-09-10T19:59:08.583Z,2.00
2017-09-10T20:01:37.000Z,1.77
2017-09-10T20:04:04.624Z,1.97
2017-09-10T20:06:32.246Z,1.93
2017-09-10T20:09:00.014Z,1.97
2017-09-10T20:11:27.702Z,2.30
2017-09-10T20:13:56.099Z,2.10
2017-09-10T20:16:24.494Z,3.17
2017-09-10T20:18:52.249Z,3.00
2017-09-10T20:21:19.868Z,3.07
2017-09-10T20:23:47.617Z,3.23
2017-09-10T20:26:15.577Z,3.10
2017-09-10T20:28:43.307Z,2.30
2017-09-10T20:31:10.910Z,2.83
2017-09-10T20:33:38.559Z,2.10
2017-09-10T20:36:06.172Z,2.60
2017-09-10T20:38:34.736Z,2.40
2017-09-10T20:41:02.320Z,2.20
2017-09-10T20:43:30.712Z,1.90
2017-09-10T20:45:58.430Z,2.57
2017-09-10T20:48:26.015Z,1.90
2017-09-10T20:50:54.432Z,2.20
2017-09-10T20:53:22.224Z,2.07
2017-09-10T20:55:49.815Z,2.20
2017-09-10T20:58:18.221Z,2.50
2017-09-10T21:00:45.851Z,1.50
2017-09-10T21:03:14.212Z,2.07
2017-09-10T21:05:42.835Z,1.80
2017-09-10T21:08:11.317Z,1.63
2017-09-10T21:10:39.129Z,1.60
2017-09-10T21:13:06.749Z,1.73
2017-09-10T21:15:35.143Z,2.47
2017-09-10T21:18:02.849Z,1.50
2017-09-10T21:20:30.509Z,1.57
2017-09-10T21:22:58.245Z,1.60
2017-09-10T21:25:26.729Z,1.40
2017-09-10T21:27:54.404Z,1.50
2017-09-10T21:30:22.070Z,1.37
2017-09-10T21:32:49.701Z,1.27
2017-09-10T21:35:17.605Z,1.20
2017-09-10T21:37:45.197Z,1.70
2017-09-10T21:40:13.553Z,1.50
2017-09-10T21:42:41.179Z,2.03
2017-09-10T21:45:09.729Z,1.70
2017-09-10T21:47:37.337Z,1.57
2017-09-10T21:50:05.059Z,1.17
2017-09-10T21:52:32.636Z,1.53
2017-09-10T21:55:00.231Z,1.43
2017-09-10T21:57:28.029Z,1.60
2017-09-10T21:59:56.400Z,1.20
2017-09-10T22:02:24.779Z,1.43
2017-09-10T22:04:53.276Z,1.73
2017-09-10T22:07:21.711Z,1.47
2017-09-10T22:09:49.343Z,2.30
2017-09-10T22:12:16.951Z,2.00
2017-09-10T22:14:44.530Z,1.73
2017-09-10T22:17:12.919Z,1.50
2017-09-10T22:19:41.282Z,1.30
2017-09-10T22:22:09.689Z,1.50
2017-09-10T22:24:37.265Z,1.53
2017-09-10T22:27:04.963Z,1.30
2017-09-10T22:29:32.577Z,1.73
2017-09-10T22:32:00.203Z,1.00
2017-09-10T22:34:28.809Z,1.47
2017-09-10T22:37:24.184Z,1.20
2017-09-10T22:39:51.837Z,1.40
2017-09-10T22:42:19.437Z,1.20
2017-09-10T22:44:47.801Z,1.00
2017-09-10T22:47:16.294Z,1.50
2017-09-10T22:49:44.635Z,0.90
2017-09-10T22:52:12.287Z,1.10
2017-09-10T22:54:39.881Z,0.97
2017-09-10T22:57:08.237Z,1.10
2017-09-10T22:59:35.859Z,1.20
2017-09-10T23:02:03.426Z,1.37
2017-09-10T23:04:32.073Z,0.90
2017-09-10T23:07:00.529Z,0.90
2017-09-10T23:09:29.601Z,1.20
2017-09-10T23:11:57.203Z,0.93
2017-09-10T23:14:25.623Z,1.00
2017-09-10T23:16:53.445Z,1.40
2017-09-10T23:19:21.018Z,1.00
2017-09-10T23:21:49.464Z,0.90
2017-09-10T23:24:17.053Z,1.00
2017-09-10T23:26:45.405Z,0.97
2017-09-10T23:29:13.287Z,1.07
2017-09-10T23:31:41.663Z,1.30
2017-09-10T23:34:10.097Z,1.00
2017-09-10T23:36:37.701Z,0.77
2017-09-10T23:39:05.435Z,1.00
2017-09-10T23:41:33.037Z,1.00
2017-09-10T23:44:01.445Z,0.90
2017-09-10T23:46:29.127Z,1.03
2017-09-10T23:48:56.745Z,0.90
2017-09-10T23:51:25.089Z,0.73
2017-09-10T23:53:52.744Z,1.20
2017-09-10T23:56:20.333Z,0.80
2017-09-10T23:58:47.897Z,0.97
